Time;durP1;ratioP1;P1;durP2;ratioP2;P2;SDS_P1;SDS_P2;PMS_P1;PMS_P2;Temp;Humidity;BMP_temperature;BMP_pressure;BME280_temperature;BME280_humidity;BME280_pressure;Samples;Min_cycle;Max_cycle;Signal;HPM_P1;HPM_P2
2021/01/03 00:02:01;;;;;;;;;53.50;38.00;;;;;2.35;88.75;99628.09;4992885;28;8871;-55
2021/01/03 00:04:28;;;;;;;;;49.75;37.25;;;;;2.21;88.00;99630.25;4976666;28;8847;-56
2021/01/03 00:06:56;;;;;;;;;28.25;21.00;;;;;2.36;88.20;99621.84;4975853;28;8872;-55
2021/01/03 00:09:24;;;;;;;;;35.75;31.25;;;;;2.35;87.32;99613.97;4976852;28;8847;-56
2021/01/03 00:11:52;;;;;;;;;45.25;38.00;;;;;2.37;86.91;99628.03;4985720;28;8799;-55
2021/01/03 00:14:19;;;;;;;;;43.00;38.00;;;;;2.60;87.99;99628.22;4975853;28;8877;-53
2021/01/03 00:16:54;;;;;;;;;42.50;41.75;;;;;2.37;86.80;99636.88;4992775;28;8869;-55
2021/01/03 00:19:21;;;;;;;;;29.00;22.00;;;;;2.18;87.44;99636.50;4969445;28;8865;-53
2021/01/03 00:21:50;;;;;;;;;35.50;30.50;;;;;2.32;87.09;99632.63;4993729;28;8867;-52
2021/01/03 00:24:17;;;;;;;;;42.25;30.50;;;;;2.10;87.26;99624.38;4969380;28;8833;-56
2021/01/03 00:26:45;;;;;;;;;42.50;33.00;;;;;2.13;87.38;99634.88;4968545;28;8890;-54
2021/01/03 00:29:13;;;;;;;;;42.50;33.00;;;;;1.93;88.32;99624.88;4984995;28;8834;-54
2021/01/03 00:31:46;;;;;;;;;48.75;36.75;;;;;2.02;88.46;99623.75;4992373;28;8851;-53
2021/01/03 00:34:14;;;;;;;;;41.75;29.50;;;;;1.96;88.09;99616.84;4984287;28;8835;-55
2021/01/03 00:36:41;;;;;;;;;46.50;40.00;;;;;1.95;88.26;99617.75;4984927;28;8876;-55
2021/01/03 00:39:08;;;;;;;;;38.75;31.00;;;;;1.92;88.49;99624.00;4991825;28;8882;-56
2021/01/03 00:41:36;;;;;;;;;42.75;37.50;;;;;1.79;89.65;99614.66;4992790;28;8835;-53
2021/01/03 00:44:05;;;;;;;;;47.00;36.00;;;;;1.93;87.95;99625.72;4993944;28;8834;-53
2021/01/03 00:46:33;;;;;;;;;31.50;27.50;;;;;2.00;88.10;99620.25;4976025;28;8846;-53
2021/01/03 00:49:00;;;;;;;;;38.00;33.25;;;;;1.81;89.17;99615.47;4993366;28;8874;-54
2021/01/03 00:51:27;;;;;;;;;44.00;36.00;;;;;1.81;88.33;99614.59;4973908;28;8850;-56
2021/01/03 00:53:54;;;;;;;;;45.25;33.25;;;;;1.93;88.40;99614.28;4993446;28;8863;-56
2021/01/03 00:56:24;;;;;;;;;33.75;24.25;;;;;1.64;89.87;99612.41;4990095;28;8969;-55
2021/01/03 00:58:52;;;;;;;;;43.00;34.75;;;;;1.72;89.55;99615.72;4991919;28;8879;-54
2021/01/03 01:01:20;;;;;;;;;45.75;31.50;;;;;1.75;88.94;99618.28;4991669;28;9598;-55
2021/01/03 01:03:48;;;;;;;;;55.00;38.25;;;;;1.66;89.41;99621.16;4976307;28;8851;-56
2021/01/03 01:06:15;;;;;;;;;45.50;34.00;;;;;1.71;88.49;99616.63;4972426;28;8850;-54
2021/01/03 01:08:42;;;;;;;;;49.50;33.75;;;;;1.55;89.65;99618.81;4981480;28;8862;-55
2021/01/03 01:11:09;;;;;;;;;47.00;36.00;;;;;1.70;89.00;99605.16;4985158;28;8948;-55
2021/01/03 01:13:37;;;;;;;;;37.50;31.50;;;;;1.85;89.06;99600.38;4992362;28;8917;-53
2021/01/03 01:16:08;;;;;;;;;42.00;31.00;;;;;1.85;88.49;99605.69;4987122;28;8845;-55
2021/01/03 01:18:36;;;;;;;;;39.50;30.50;;;;;1.70;88.01;99596.38;4958966;28;8841;-55
2021/01/03 01:21:04;;;;;;;;;41.00;30.00;;;;;1.70;88.19;99593.72;4973587;28;9536;-56
2021/01/03 01:23:31;;;;;;;;;38.25;35.50;;;;;1.41;89.61;99590.06;4993424;28;8957;-56
2021/01/03 01:25:58;;;;;;;;;41.75;33.25;;;;;1.57;89.20;99579.09;4986995;28;8888;-54
2021/01/03 01:28:27;;;;;;;;;39.00;30.50;;;;;1.62;88.44;99587.78;4984755;28;8997;-54
2021/01/03 01:30:55;;;;;;;;;41.00;30.75;;;;;1.56;88.52;99593.22;4981572;28;8875;-55
2021/01/03 01:33:22;;;;;;;;;30.75;30.75;;;;;1.21;90.08;99605.56;4968318;28;8873;-55
2021/01/03 01:35:49;;;;;;;;;36.50;34.50;;;;;1.24;89.78;99613.44;4987186;28;8872;-54
2021/01/03 01:38:16;;;;;;;;;53.50;36.00;;;;;1.63;89.23;99605.38;4984279;28;8859;-53
2021/01/03 01:40:43;;;;;;;;;53.50;36.00;;;;;1.37;89.78;99598.09;4987772;28;8841;-55
2021/01/03 01:43:15;;;;;;;;;42.25;32.50;;;;;1.04;90.13;99598.91;4983178;28;8884;-55
2021/01/03 01:45:46;;;;;;;;;41.25;31.50;;;;;1.35;89.34;99598.16;4983701;28;8862;-55
2021/01/03 01:48:28;;;;;;;;;37.00;34.00;;;;;1.36;88.79;99591.97;4986712;28;8877;-55
2021/01/03 01:51:29;;;;;;;;;42.25;34.75;;;;;1.28;89.75;99604.50;4977467;28;8869;-54
2021/01/03 01:54:09;;;;;;;;;48.00;37.00;;;;;1.43;88.99;99609.41;4966720;28;8855;-55
2021/01/03 01:57:02;;;;;;;;;44.50;33.25;;;;;1.43;89.46;99597.97;4965363;28;8961;-55
2021/01/03 02:00:05;;;;;;;;;51.00;35.00;;;;;1.43;89.84;99596.19;4985709;28;8853;-55
2021/01/03 02:02:54;;;;;;;;;32.25;26.00;;;;;1.38;88.88;99590.16;4993168;28;8881;-56
2021/01/03 02:05:47;;;;;;;;;55.25;32.50;;;;;1.42;88.77;99594.47;4988085;28;8843;-53
2021/01/03 02:08:43;;;;;;;;;45.50;31.75;;;;;1.37;88.56;99583.13;4986542;28;8901;-56
2021/01/03 02:11:17;;;;;;;;;37.75;35.00;;;;;1.41;88.85;99568.91;4980989;28;8885;-55
2021/01/03 02:13:53;;;;;;;;;44.50;35.50;;;;;1.30;89.04;99570.97;4993047;28;8830;-56
2021/01/03 02:16:25;;;;;;;;;38.75;29.50;;;;;1.20;89.32;99569.47;4992514;28;8966;-54
2021/01/03 02:18:53;;;;;;;;;37.75;30.00;;;;;1.29;88.83;99558.63;4968282;28;8837;-55
2021/01/03 02:21:40;;;;;;;;;46.50;36.00;;;;;1.40;89.51;99551.31;4985210;28;8861;-54
2021/01/03 02:24:14;;;;;;;;;31.00;29.00;;;;;1.08;89.94;99560.06;4965733;28;8858;-53
2021/01/03 02:26:55;;;;;;;;;43.50;33.50;;;;;0.92;90.65;99558.69;4979743;28;8880;-56
2021/01/03 02:29:25;;;;;;;;;30.50;22.50;;;;;1.09;90.47;99552.09;4990644;28;8924;-53
2021/01/03 02:31:55;;;;;;;;;38.50;30.75;;;;;1.22;90.08;99549.13;4967090;28;8799;-55
2021/01/03 02:34:46;;;;;;;;;44.50;39.25;;;;;1.25;89.16;99547.28;4976732;28;8878;-55
2021/01/03 02:37:30;;;;;;;;;42.00;32.00;;;;;1.19;89.49;99546.59;4979094;28;8859;-54
2021/01/03 02:40:06;;;;;;;;;43.50;32.25;;;;;1.24;90.40;99545.56;4975059;28;8947;-54
2021/01/03 02:42:37;;;;;;;;;39.75;33.75;;;;;1.21;90.01;99544.75;4980030;28;9592;-54
2021/01/03 02:45:29;;;;;;;;;41.50;28.25;;;;;1.50;88.49;99565.13;4985889;28;8846;-55
2021/01/03 02:48:17;;;;;;;;;52.25;45.00;;;;;1.39;89.60;99562.78;4982045;28;8863;-54
2021/01/03 02:50:44;;;;;;;;;51.50;36.50;;;;;1.22;89.33;99565.00;4987968;28;8877;-54
2021/01/03 02:53:11;;;;;;;;;49.00;35.25;;;;;1.31;89.54;99556.81;4988829;28;8867;-56
2021/01/03 02:55:38;;;;;;;;;60.00;43.25;;;;;1.29;89.35;99553.34;4991762;28;8846;-56
2021/01/03 02:58:06;;;;;;;;;49.50;39.75;;;;;1.32;89.56;99558.56;4986549;28;8853;-54
2021/01/03 03:00:36;;;;;;;;;46.00;33.75;;;;;1.34;89.52;99556.75;4989806;28;8992;-56
2021/01/03 03:03:05;;;;;;;;;36.50;34.50;;;;;1.47;89.19;99546.69;4973624;28;8868;-53
2021/01/03 03:05:32;;;;;;;;;40.50;34.25;;;;;1.35;89.56;99542.63;4981534;28;8837;-55
2021/01/03 03:07:59;;;;;;;;;39.00;30.75;;;;;1.26;89.69;99533.16;4969441;28;8847;-55
2021/01/03 03:10:27;;;;;;;;;35.25;30.00;;;;;1.49;88.64;99523.72;4986717;28;8954;-53
2021/01/03 03:12:59;;;;;;;;;35.00;30.25;;;;;1.52;87.82;99532.44;4987240;28;8839;-55
2021/01/03 03:15:32;;;;;;;;;25.50;25.50;;;;;1.41;88.73;99520.44;4986350;28;8853;-55
2021/01/03 03:18:01;;;;;;;;;38.00;29.50;;;;;1.42;88.81;99522.16;4970934;28;8858;-56
2021/01/03 03:20:28;;;;;;;;;35.50;33.25;;;;;1.51;89.01;99528.06;4982931;28;9544;-55
2021/01/03 03:22:55;;;;;;;;;34.50;28.00;;;;;1.44;88.93;99518.56;4993824;28;8863;-55
2021/01/03 03:25:23;;;;;;;;;35.00;29.50;;;;;1.51;88.99;99525.44;4998569;28;8913;-56
2021/01/03 03:27:50;;;;;;;;;37.00;33.50;;;;;1.41;89.13;99521.28;4983588;28;8992;-55
2021/01/03 03:30:21;;;;;;;;;36.50;32.25;;;;;1.71;89.49;99513.41;4989734;28;8845;-56
2021/01/03 03:32:53;;;;;;;;;7.50;1.50;;;;;1.65;88.86;99503.00;4982381;28;8848;-54
2021/01/03 03:35:30;;;;;;;;;44.75;30.50;;;;;1.71;87.92;99500.19;4990182;28;8845;-55
2021/01/03 03:37:58;;;;;;;;;41.50;32.00;;;;;1.74;87.54;99506.25;4986235;28;8868;-54
2021/01/03 03:40:25;;;;;;;;;49.25;39.50;;;;;1.66;87.74;99502.09;4983652;28;9619;-55
2021/01/03 03:42:52;;;;;;;;;46.50;42.25;;;;;1.90;86.60;99490.81;4984166;28;9895;-54
2021/01/03 03:45:19;;;;;;;;;60.75;45.50;;;;;1.70;86.79;99487.88;4984227;28;8852;-53
2021/01/03 03:47:46;;;;;;;;;36.50;25.00;;;;;1.57;87.31;99479.41;4984004;28;8862;-54
2021/01/03 03:50:19;;;;;;;;;42.00;30.25;;;;;1.63;87.82;99473.94;4984564;28;8879;-54
2021/01/03 03:52:46;;;;;;;;;31.50;27.50;;;;;1.58;87.89;99480.25;4986616;28;8837;-56
2021/01/03 03:55:15;;;;;;;;;41.00;30.50;;;;;1.70;87.26;99479.94;4969113;28;8845;-54
2021/01/03 03:57:42;;;;;;;;;43.25;33.50;;;;;1.66;86.97;99478.25;4968142;28;8882;-54
2021/01/03 04:00:18;;;;;;;;;39.25;30.75;;;;;1.68;87.06;99474.66;4992571;28;8859;-55
2021/01/03 04:02:46;;;;;;;;;45.50;36.00;;;;;1.76;87.34;99469.16;4986011;28;8947;-56
2021/01/03 04:05:26;;;;;;;;;57.50;40.00;;;;;1.72;87.28;99473.69;4970104;28;8854;-55
2021/01/03 04:07:52;;;;;;;;;39.50;33.50;;;;;1.84;87.06;99483.03;4986800;28;9640;-54
2021/01/03 04:10:21;;;;;;;;;41.75;32.25;;;;;1.71;86.70;99471.06;4985380;28;9587;-55
2021/01/03 04:12:48;;;;;;;;;47.25;37.00;;;;;1.74;86.42;99466.56;4977647;28;8861;-53
2021/01/03 04:15:18;;;;;;;;;39.25;31.25;;;;;1.80;86.19;99465.50;4978325;28;8842;-55
2021/01/03 04:17:45;;;;;;;;;42.00;31.00;;;;;1.79;87.37;99471.72;4965902;28;8972;-55
2021/01/03 04:20:18;;;;;;;;;51.50;33.50;;;;;1.84;87.22;99483.03;4990726;28;8838;-53
2021/01/03 04:22:46;;;;;;;;;41.75;35.25;;;;;1.84;86.83;99490.97;4981412;28;8976;-55
2021/01/03 04:25:14;;;;;;;;;40.25;32.50;;;;;1.79;86.61;99482.31;4984866;28;8873;-55
2021/01/03 04:27:41;;;;;;;;;49.00;39.25;;;;;1.79;86.51;99477.03;4978296;28;8862;-56
2021/01/03 04:30:10;;;;;;;;;44.50;39.00;;;;;1.74;86.65;99482.44;4998338;28;8856;-55
2021/01/03 04:32:37;;;;;;;;;37.75;15.25;;;;;1.71;86.51;99476.34;4985792;28;8932;-53
2021/01/03 04:35:07;;;;;;;;;146.25;113.25;;;;;1.87;86.75;99472.38;4991313;28;8843;-55
2021/01/03 04:37:35;;;;;;;;;57.50;43.75;;;;;1.71;87.18;99471.06;4978225;28;8881;-56
2021/01/03 04:40:04;;;;;;;;;42.25;32.00;;;;;1.88;87.43;99479.38;4985973;28;8845;-53
2021/01/03 04:42:34;;;;;;;;;109.50;87.75;;;;;1.79;86.78;99469.09;4990260;28;8881;-55
2021/01/03 04:45:34;;;;;;;;;36.25;30.50;;;;;1.88;86.45;99484.69;4970302;28;9689;-55
2021/01/03 04:48:06;;;;;;;;;36.00;22.75;;;;;1.93;87.23;99509.25;4982074;28;8915;-54
2021/01/03 04:51:18;;;;;;;;;90.00;62.00;;;;;1.70;87.60;99474.63;4986242;28;8853;-56
2021/01/03 04:54:18;;;;;;;;;73.25;53.75;;;;;1.85;86.57;99471.53;4967181;28;8839;-55
2021/01/03 04:56:54;;;;;;;;;97.50;72.75;;;;;1.81;86.68;99477.81;4978955;28;8849;-54
2021/01/03 04:59:46;;;;;;;;;43.00;32.75;;;;;1.91;86.44;99492.53;4982971;28;8866;-54
2021/01/03 05:02:46;;;;;;;;;49.75;34.50;;;;;1.91;86.91;99503.13;4960342;28;8842;-55
2021/01/03 05:05:52;;;;;;;;;37.25;33.50;;;;;1.93;86.43;99497.78;4981640;28;8947;-56
2021/01/03 05:08:40;;;;;;;;;43.00;31.00;;;;;2.00;86.46;99494.03;4963937;28;8885;-54
2021/01/03 05:11:16;;;;;;;;;51.50;34.25;;;;;1.96;86.53;99495.91;4968094;28;8835;-54
2021/01/03 05:14:12;;;;;;;;;45.00;34.50;;;;;2.02;86.01;99505.44;4970267;28;8845;-56
2021/01/03 05:16:39;;;;;;;;;40.25;30.00;;;;;2.06;85.37;99498.31;4967453;28;9702;-55
2021/01/03 05:19:06;;;;;;;;;31.00;27.00;;;;;2.10;84.93;99494.63;4987294;28;8841;-56
2021/01/03 05:21:51;;;;;;;;;33.50;24.75;;;;;1.98;86.14;99507.34;4967216;28;8839;-56
2021/01/03 05:24:22;;;;;;;;;57.50;45.50;;;;;2.00;85.43;99498.47;4984471;28;8891;-56
2021/01/03 05:26:50;;;;;;;;;53.25;45.00;;;;;1.95;86.79;99502.13;4991625;28;8848;-56
2021/01/03 05:29:28;;;;;;;;;44.50;38.00;;;;;1.96;86.35;99498.56;4983132;28;8977;-57
2021/01/03 05:32:05;;;;;;;;;43.50;27.25;;;;;1.95;85.76;99494.19;4982589;28;8941;-56
2021/01/03 05:34:41;;;;;;;;;40.50;30.75;;;;;2.01;85.84;99497.56;4987774;28;8850;-55
2021/01/03 05:37:28;;;;;;;;;31.00;25.50;;;;;2.10;85.35;99505.22;4985676;28;8853;-55
2021/01/03 05:39:54;;;;;;;;;36.00;28.50;;;;;2.38;85.21;99516.72;4978430;28;8861;-56
2021/01/03 05:42:35;;;;;;;;;42.75;34.25;;;;;2.45;85.76;99500.63;4996709;28;8873;-54
2021/01/03 05:45:12;;;;;;;;;40.50;32.00;;;;;2.08;84.78;99512.34;4984348;28;8849;-56
2021/01/03 05:48:01;;;;;;;;;37.75;32.00;;;;;2.03;85.52;99508.97;4979218;28;8861;-54
2021/01/03 05:50:37;;;;;;;;;46.25;33.25;;;;;2.01;85.80;99511.66;4972203;28;9405;-56
2021/01/03 05:53:25;;;;;;;;;59.75;45.50;;;;;1.98;85.80;99507.34;4971632;28;8854;-55
2021/01/03 05:55:55;;;;;;;;;58.25;42.50;;;;;2.02;86.01;99512.53;4973767;28;8865;-54
2021/01/03 05:58:42;;;;;;;;;37.25;33.00;;;;;1.98;85.50;99512.63;4981724;28;8865;-55
2021/01/03 06:01:23;;;;;;;;;43.50;33.75;;;;;2.00;85.83;99509.06;4961671;28;8940;-54
2021/01/03 06:04:16;;;;;;;;;34.00;28.50;;;;;2.04;85.62;99518.66;4971037;28;8903;-56
2021/01/03 06:06:51;;;;;;;;;44.25;33.50;;;;;1.91;85.86;99510.19;4982722;28;8885;-55
2021/01/03 06:09:36;;;;;;;;;29.25;27.75;;;;;1.93;85.81;99513.69;4979830;28;8952;-56
2021/01/03 06:12:14;;;;;;;;;48.25;33.50;;;;;2.05;85.65;99505.34;4967454;28;8838;-56
2021/01/03 06:14:42;;;;;;;;;38.75;25.75;;;;;1.94;85.83;99516.25;4996034;28;8907;-54
2021/01/03 06:17:34;;;;;;;;;36.75;30.00;;;;;1.96;86.25;99508.28;4970881;28;8909;-55
2021/01/03 06:20:15;;;;;;;;;46.00;33.75;;;;;1.90;86.04;99509.34;4982420;28;8956;-57
2021/01/03 06:22:49;;;;;;;;;55.50;36.00;;;;;1.94;85.84;99518.03;4988457;28;8842;-55
2021/01/03 06:25:57;;;;;;;;;50.50;37.50;;;;;2.08;85.21;99517.63;4998272;28;8854;-56
2021/01/03 06:28:24;;;;;;;;;69.00;53.75;;;;;1.98;86.08;99523.22;4978742;28;8870;-55
2021/01/03 06:31:25;;;;;;;;;87.00;68.00;;;;;1.93;85.82;99511.88;4968961;28;8874;-54
2021/01/03 06:34:06;;;;;;;;;40.75;34.00;;;;;1.81;85.92;99511.38;4975643;28;8849;-56
2021/01/03 06:36:58;;;;;;;;;75.50;53.75;;;;;1.91;86.32;99526.09;4986269;28;9548;-56
2021/01/03 06:40:04;;;;;;;;;49.25;42.50;;;;;2.06;86.55;99524.78;5000206;28;8877;-57
2021/01/03 06:42:37;;;;;;;;;37.50;32.25;;;;;2.14;85.73;99536.00;4985555;28;8979;-55
2021/01/03 06:45:26;;;;;;;;;48.50;39.75;;;;;1.95;85.51;99528.59;4988673;28;8882;-56
2021/01/03 06:48:26;;;;;;;;;68.00;53.50;;;;;1.93;85.41;99524.25;5004873;28;8869;-55
2021/01/03 06:51:17;;;;;;;;;73.75;49.00;;;;;2.18;85.69;99524.38;5002236;28;8843;-56
2021/01/03 06:54:40;;;;;;;;;36.25;32.00;;;;;1.95;85.89;99533.03;4986762;28;8933;-54
2021/01/03 06:57:42;;;;;;;;;31.75;20.00;;;;;2.15;85.65;99540.38;4992470;28;8885;-56
2021/01/03 07:00:25;;;;;;;;;26.00;21.75;;;;;2.21;85.05;99550.78;4985585;28;8838;-55
2021/01/03 07:03:10;;;;;;;;;39.00;30.50;;;;;2.11;85.43;99544.91;4962138;28;8943;-56
2021/01/03 07:05:37;;;;;;;;;42.00;33.25;;;;;2.07;85.89;99534.44;4975317;28;8871;-54
2021/01/03 07:08:09;;;;;;;;;38.25;29.25;;;;;2.17;84.96;99534.13;4974537;28;9517;-57
2021/01/03 07:10:42;;;;;;;;;29.75;27.00;;;;;2.22;85.75;99539.28;4967116;28;8858;-57
2021/01/03 07:13:30;;;;;;;;;35.75;30.75;;;;;2.22;84.96;99535.78;4966940;28;9577;-57
2021/01/03 07:15:59;;;;;;;;;36.25;27.50;;;;;2.24;85.32;99537.47;4981661;28;8948;-57
2021/01/03 07:18:29;;;;;;;;;40.50;30.00;;;;;2.28;85.15;99536.44;4984633;28;8835;-58
2021/01/03 07:21:41;;;;;;;;;102.50;69.50;;;;;2.35;84.74;99540.66;4980099;28;9701;-57
2021/01/03 07:24:34;;;;;;;;;343.25;245.25;;;;;2.32;85.12;99546.06;4983711;28;8857;-57
2021/01/03 07:27:33;;;;;;;;;255.75;187.50;;;;;2.46;84.88;99550.06;4976415;28;8833;-56
2021/01/03 07:30:03;;;;;;;;;347.50;245.00;;;;;2.39;85.07;99544.94;4985687;28;8845;-57
2021/01/03 07:32:32;;;;;;;;;177.00;137.00;;;;;2.36;84.99;99541.53;4986784;28;8973;-56
2021/01/03 07:35:08;;;;;;;;;64.75;48.75;;;;;2.34;85.04;99546.00;4979243;28;8868;-56
2021/01/03 07:37:38;;;;;;;;;118.50;91.25;;;;;2.38;85.08;99547.66;4966964;28;8927;-57
2021/01/03 07:40:11;;;;;;;;;29.25;18.25;;;;;2.38;85.76;99545.84;4965329;28;8896;-56
2021/01/03 07:42:44;;;;;;;;;72.25;51.50;;;;;2.37;85.23;99536.19;4993251;28;8827;-58
2021/01/03 07:45:14;;;;;;;;;57.50;42.50;;;;;2.53;85.52;99535.72;4983893;28;8857;-57
2021/01/03 07:47:49;;;;;;;;;41.00;37.50;;;;;2.48;85.20;99537.66;4990577;28;8854;-57
2021/01/03 07:50:35;;;;;;;;;59.50;48.25;;;;;2.56;85.51;99527.66;4978444;28;8870;-56
2021/01/03 07:53:33;;;;;;;;;45.50;36.50;;;;;2.70;85.62;99533.38;4999356;28;8863;-57
2021/01/03 07:56:22;;;;;;;;;65.75;49.25;;;;;2.67;85.40;99543.22;4989025;28;8843;-57
2021/01/03 07:58:52;;;;;;;;;72.25;56.00;;;;;2.68;85.48;99547.59;4979056;28;8866;-56
2021/01/03 08:01:31;;;;;;;;;73.00;57.00;;;;;2.69;83.64;99546.69;4966533;28;8913;-57
2021/01/03 08:04:05;;;;;;;;;63.25;47.25;;;;;2.57;85.13;99547.94;4997625;28;8950;-57
2021/01/03 08:06:32;;;;;;;;;56.25;44.00;;;;;2.55;85.05;99550.63;4969566;28;8923;-57
2021/01/03 08:09:00;;;;;;;;;69.75;54.00;;;;;2.66;84.90;99555.63;4983929;28;8837;-57
2021/01/03 08:11:35;;;;;;;;;50.75;41.25;;;;;2.73;84.31;99556.28;4984657;28;8843;-57
2021/01/03 08:14:10;;;;;;;;;74.25;59.00;;;;;2.73;85.49;99548.31;4985276;28;8997;-57
2021/01/03 08:16:38;;;;;;;;;46.25;39.00;;;;;2.83;84.80;99550.63;4969202;28;8889;-57
2021/01/03 08:19:09;;;;;;;;;77.50;59.50;;;;;2.79;84.30;99549.00;4968479;28;8839;-56
2021/01/03 08:21:41;;;;;;;;;50.25;44.00;;;;;2.89;85.33;99540.75;4965697;28;8873;-57
2021/01/03 08:24:17;;;;;;;;;50.50;40.00;;;;;2.94;84.70;99539.66;4988693;28;8858;-57
2021/01/03 08:26:46;;;;;;;;;36.00;31.50;;;;;2.90;85.76;99545.13;4983188;28;9044;-56
2021/01/03 08:29:37;;;;;;;;;84.00;67.00;;;;;2.93;85.14;99550.34;4966271;28;8872;-54
2021/01/03 08:32:17;;;;;;;;;67.75;48.75;;;;;2.87;84.92;99556.72;4963009;28;8859;-57
2021/01/03 08:34:44;;;;;;;;;84.25;65.50;;;;;2.93;85.02;99547.69;4984247;28;8850;-55
2021/01/03 08:37:22;;;;;;;;;41.25;38.25;;;;;2.86;85.07;99544.34;4987612;28;9649;-57
2021/01/03 08:39:53;;;;;;;;;37.00;29.75;;;;;2.91;84.88;99560.13;4979751;28;8879;-55
2021/01/03 08:42:42;;;;;;;;;61.00;48.00;;;;;3.08;84.54;99552.47;5000283;28;8862;-54
2021/01/03 08:45:21;;;;;;;;;46.25;33.75;;;;;3.10;85.10;99552.44;4965820;28;8873;-57
2021/01/03 08:47:50;;;;;;;;;45.75;39.50;;;;;3.16;85.07;99563.72;4966219;28;8849;-57
2021/01/03 08:50:25;;;;;;;;;46.75;34.50;;;;;3.20;84.55;99560.03;4987837;28;8853;-57
2021/01/03 08:53:23;;;;;;;;;64.50;48.25;;;;;3.32;84.93;99563.19;4985469;28;9566;-54
2021/01/03 08:56:04;;;;;;;;;92.75;69.25;;;;;3.49;84.21;99563.47;4981686;28;9659;-57
2021/01/03 08:58:38;;;;;;;;;69.25;52.00;;;;;3.51;84.48;99570.47;4973962;28;8853;-57
2021/01/03 09:01:18;;;;;;;;;72.25;58.00;;;;;3.37;84.75;99572.75;4969091;28;8881;-55
2021/01/03 09:03:49;;;;;;;;;84.75;64.00;;;;;3.45;84.50;99569.78;4975225;28;8850;-57
2021/01/03 09:06:17;;;;;;;;;62.25;51.50;;;;;3.57;85.05;99571.19;4966811;28;8956;-54
2021/01/03 09:08:45;;;;;;;;;61.25;48.00;;;;;3.60;84.14;99571.06;4963037;28;8975;-57
2021/01/03 09:11:29;;;;;;;;;92.75;68.00;;;;;3.74;84.40;99572.31;4976646;28;8839;-58
2021/01/03 09:14:41;;;;;;;;;62.75;47.75;;;;;3.63;84.56;99574.47;4971525;28;8834;-58
2021/01/03 09:17:16;;;;;;;;;73.75;57.75;;;;;3.75;83.97;99567.88;4968726;28;8938;-57
2021/01/03 09:19:48;;;;;;;;;92.25;69.50;;;;;3.76;83.16;99566.94;4981072;28;8889;-58
2021/01/03 09:22:35;;;;;;;;;67.50;52.25;;;;;3.81;84.23;99556.16;4973113;28;8846;-57
2021/01/03 09:25:08;;;;;;;;;75.75;55.50;;;;;3.80;84.26;99560.63;4968332;28;8854;-57
2021/01/03 09:27:37;;;;;;;;;79.50;60.25;;;;;4.02;84.98;99565.13;4980492;28;8877;-58
2021/01/03 09:30:29;;;;;;;;;69.25;56.00;;;;;3.93;84.13;99566.34;4967612;28;12091;-56
2021/01/03 09:33:19;;;;;;;;;65.50;50.50;;;;;3.99;84.63;99565.25;4983642;28;8863;-56
2021/01/03 09:36:11;;;;;;;;;53.00;39.25;;;;;3.95;84.13;99575.13;4980163;28;8858;-57
2021/01/03 09:38:41;;;;;;;;;42.75;40.00;;;;;4.02;83.94;99573.09;4988481;28;8944;-56
2021/01/03 09:41:29;;;;;;;;;49.50;37.00;;;;;4.11;84.38;99578.97;4984473;28;8853;-56
2021/01/03 09:44:39;;;;;;;;;52.50;39.75;;;;;4.18;84.74;99569.81;4985612;28;8881;-57
2021/01/03 09:47:11;;;;;;;;;51.25;40.25;;;;;4.33;83.82;99568.38;4961796;28;8861;-56
2021/01/03 09:49:40;;;;;;;;;60.00;38.25;;;;;4.34;83.54;99562.13;4982126;28;8865;-58
2021/01/03 09:52:26;;;;;;;;;59.75;46.50;;;;;4.50;84.54;99567.75;4974337;28;8834;-57
2021/01/03 09:55:02;;;;;;;;;79.50;60.00;;;;;4.64;83.75;99551.25;4983209;28;8838;-58
2021/01/03 09:57:54;;;;;;;;;42.75;36.25;;;;;4.59;84.12;99546.09;5001317;28;8867;-57
2021/01/03 10:00:47;;;;;;;;;49.50;43.25;;;;;4.61;84.73;99549.59;4980487;28;8841;-58
2021/01/03 10:03:38;;;;;;;;;106.25;83.25;;;;;4.82;85.20;99541.69;4983767;28;8896;-58
2021/01/03 10:06:24;;;;;;;;;59.75;47.00;;;;;4.84;84.91;99545.13;4980242;28;8963;-56
2021/01/03 10:09:17;;;;;;;;;66.00;47.00;;;;;5.20;85.71;99536.56;4985188;28;8839;-57
2021/01/03 10:11:46;;;;;;;;;87.50;65.75;;;;;5.09;83.36;99541.47;4967813;28;8913;-57
2021/01/03 10:14:28;;;;;;;;;236.00;172.00;;;;;5.03;83.86;99548.78;4964836;28;8858;-59
2021/01/03 10:16:55;;;;;;;;;109.00;86.50;;;;;5.07;84.82;99547.72;4985578;28;8876;-57
2021/01/03 10:19:31;;;;;;;;;167.75;130.00;;;;;5.12;85.25;99549.31;4984873;28;8849;-58
2021/01/03 10:21:58;;;;;;;;;75.75;58.75;;;;;5.18;84.92;99546.41;4971262;28;8855;-56
2021/01/03 10:24:28;;;;;;;;;65.25;45.50;;;;;5.22;84.44;99542.69;4987827;28;8966;-53
2021/01/03 10:27:03;;;;;;;;;123.00;88.50;;;;;5.36;83.75;99537.63;4987015;28;8880;-57
2021/01/03 10:29:32;;;;;;;;;57.00;45.00;;;;;5.26;83.59;99544.28;4979676;28;8952;-57
2021/01/03 10:32:00;;;;;;;;;87.25;66.75;;;;;5.48;84.25;99544.25;4989222;28;9696;-55
2021/01/03 10:34:28;;;;;;;;;73.00;51.00;;;;;5.53;83.92;99538.69;4992299;28;8857;-57
2021/01/03 10:37:00;;;;;;;;;64.50;47.75;;;;;5.36;82.85;99534.97;4995981;28;8867;-57
2021/01/03 10:39:29;;;;;;;;;54.00;45.25;;;;;5.44;84.32;99524.84;4988255;28;9618;-55
2021/01/03 10:41:57;;;;;;;;;56.50;43.25;;;;;5.54;83.44;99535.13;4985146;28;8845;-57
2021/01/03 10:44:25;;;;;;;;;45.00;36.75;;;;;5.59;82.81;99535.78;4979000;28;8862;-55
2021/01/03 10:46:55;;;;;;;;;71.75;54.50;;;;;5.60;83.66;99524.19;4999545;28;8873;-55
2021/01/03 10:49:22;;;;;;;;;49.33;40.67;;;;;5.60;83.37;99526.84;4979971;28;8849;-54
2021/01/03 10:51:50;;;;;;;;;71.00;50.25;;;;;5.57;83.73;99535.84;4984250;28;9566;-56
2021/01/03 10:54:27;;;;;;;;;52.00;43.75;;;;;5.46;83.91;99528.31;4968375;28;8848;-57
2021/01/03 10:57:06;;;;;;;;;56.00;44.25;;;;;5.44;84.77;99529.31;4985215;28;8833;-56
2021/01/03 10:59:34;;;;;;;;;64.00;44.75;;;;;5.60;85.25;99518.88;4991249;28;8853;-57
2021/01/03 11:02:01;;;;;;;;;64.75;50.50;;;;;5.57;84.53;99508.34;4984065;28;8854;-57
2021/01/03 11:04:28;;;;;;;;;68.00;49.75;;;;;5.58;84.85;99510.06;4987264;28;8855;-56
2021/01/03 11:06:57;;;;;;;;;54.00;33.75;;;;;5.65;84.20;99503.56;4970215;28;8889;-57
2021/01/03 11:09:26;;;;;;;;;74.75;56.75;;;;;5.99;84.89;99497.59;4986834;28;8880;-57
2021/01/03 11:12:09;;;;;;;;;69.50;54.50;;;;;5.85;84.82;99492.03;4985071;28;9878;-57
2021/01/03 11:14:37;;;;;;;;;56.00;43.00;;;;;5.96;84.12;99488.91;5001982;28;8973;-58
2021/01/03 11:17:07;;;;;;;;;55.50;41.00;;;;;5.79;84.90;99487.81;4988391;28;8858;-56
2021/01/03 11:19:35;;;;;;;;;45.33;33.33;;;;;5.89;84.38;99482.94;4992675;28;8902;-57
2021/01/03 11:22:06;;;;;;;;;39.67;36.00;;;;;5.83;84.25;99478.75;4993339;28;8839;-56
2021/01/03 11:24:33;;;;;;;;;36.67;35.67;;;;;5.90;84.86;99487.34;4982753;28;8838;-57
2021/01/03 11:27:04;;;;;;;;;56.00;44.00;;;;;5.91;84.50;99486.41;4990460;28;9606;-57
2021/01/03 11:29:50;;;;;;;;;46.33;40.33;;;;;6.07;84.84;99486.59;4981938;28;8872;-56
2021/01/03 11:32:23;;;;;;;;;63.00;45.50;;;;;5.87;84.63;99487.47;4988788;28;8902;-58
2021/01/03 11:34:51;;;;;;;;;55.33;44.33;;;;;5.84;85.27;99487.59;4973954;28;8853;-58
2021/01/03 11:37:24;;;;;;;;;77.75;54.75;;;;;6.19;87.66;99486.03;4989518;28;8845;-57
2021/01/03 11:39:52;;;;;;;;;56.00;42.67;;;;;6.23;86.35;99487.59;4991195;28;8851;-56
2021/01/03 11:42:34;;;;;;;;;43.67;33.67;;;;;6.29;87.05;99482.00;4979504;28;8863;-56
2021/01/03 11:45:15;;;;;;;;;90.75;70.50;;;;;6.14;84.74;99488.03;5100802;27;13544;-62
2021/01/03 11:47:42;;;;;;;;;47.67;37.00;;;;;6.09;86.02;99490.06;5082593;28;8809;-62
2021/01/03 11:50:14;;;;;;;;;65.00;49.25;;;;;6.12;85.31;99492.56;5083215;28;8849;-61
2021/01/03 11:52:41;;;;;;;;;87.00;66.75;;;;;6.02;85.50;99488.59;5083707;28;8839;-63
2021/01/03 11:55:12;;;;;;;;;70.25;49.50;;;;;6.01;86.92;99489.56;5081707;28;10347;-62
2021/01/03 11:57:39;;;;;;;;;81.50;59.25;;;;;6.07;86.79;99491.91;5083652;28;9614;-62
2021/01/03 12:00:10;;;;;;;;;39.67;34.67;;;;;6.05;86.68;99488.47;5085316;28;8852;-62
2021/01/03 12:02:36;;;;;;;;;41.67;35.67;;;;;6.27;87.08;99488.34;5065471;28;8821;-62
2021/01/03 12:05:06;;;;;;;;;48.33;37.33;;;;;5.96;86.29;99492.41;5083989;28;8842;-62
2021/01/03 12:07:33;;;;;;;;;40.67;34.00;;;;;6.14;85.84;99498.72;5082580;28;8822;-62
2021/01/03 12:10:00;;;;;;;;;121.75;103.50;;;;;6.18;86.46;99494.09;5082065;28;8850;-62
2021/01/03 12:12:28;;;;;;;;;183.75;151.25;;;;;6.06;86.76;99496.41;5082824;28;8837;-62